Aviation Digital Data Service (ADDS)

Output produced by METARs form (1735 UTC 22 May 2015)
found at http://aviationweather.gov/adds/metars/
 
KRWI 221724Z 2218/2318 VRB05KT P6SM SKC